sensor_id;sensor_type;location;lat;lon;timestamp;P1;durP1;ratioP1;P2;durP2;ratioP2
1759;SDS011;877;46.266;20.062;2023-04-28T00:02:08;18.45;;;12.13;;
1759;SDS011;877;46.266;20.062;2023-04-28T00:04:34;16.80;;;12.05;;
1759;SDS011;877;46.266;20.062;2023-04-28T00:07:00;14.50;;;11.43;;
1759;SDS011;877;46.266;20.062;2023-04-28T00:09:26;20.33;;;12.20;;
1759;SDS011;877;46.266;20.062;2023-04-28T00:11:54;18.08;;;13.23;;
1759;SDS011;877;46.266;20.062;2023-04-28T00:16:49;14.70;;;11.07;;
1759;SDS011;877;46.266;20.062;2023-04-28T00:19:15;13.55;;;11.55;;
1759;SDS011;877;46.266;20.062;2023-04-28T00:21:43;16.50;;;12.57;;
1759;SDS011;877;46.266;20.062;2023-04-28T00:24:09;15.40;;;12.10;;
1759;SDS011;877;46.266;20.062;2023-04-28T00:26:36;14.77;;;11.55;;
1759;SDS011;877;46.266;20.062;2023-04-28T00:29:04;14.98;;;11.73;;
1759;SDS011;877;46.266;20.062;2023-04-28T00:31:31;15.52;;;10.90;;
1759;SDS011;877;46.266;20.062;2023-04-28T00:33:58;15.10;;;11.73;;
1759;SDS011;877;46.266;20.062;2023-04-28T00:36:24;14.88;;;12.00;;
1759;SDS011;877;46.266;20.062;2023-04-28T00:38:56;13.95;;;11.15;;
1759;SDS011;877;46.266;20.062;2023-04-28T00:41:23;15.93;;;12.25;;
1759;SDS011;877;46.266;20.062;2023-04-28T00:43:50;19.88;;;12.60;;
1759;SDS011;877;46.266;20.062;2023-04-28T00:46:19;15.20;;;11.80;;
1759;SDS011;877;46.266;20.062;2023-04-28T00:48:52;16.23;;;11.90;;
1759;SDS011;877;46.266;20.062;2023-04-28T00:51:19;16.40;;;12.15;;
1759;SDS011;877;46.266;20.062;2023-04-28T00:53:46;18.60;;;12.35;;
1759;SDS011;877;46.266;20.062;2023-04-28T00:56:13;17.73;;;12.15;;
1759;SDS011;877;46.266;20.062;2023-04-28T00:58:39;18.00;;;12.48;;
1759;SDS011;877;46.266;20.062;2023-04-28T01:03:43;16.30;;;12.63;;
1759;SDS011;877;46.266;20.062;2023-04-28T01:06:12;16.33;;;12.73;;
1759;SDS011;877;46.266;20.062;2023-04-28T01:08:39;16.88;;;12.80;;
1759;SDS011;877;46.266;20.062;2023-04-28T01:11:09;17.50;;;14.00;;
1759;SDS011;877;46.266;20.062;2023-04-28T01:13:38;16.40;;;12.45;;
1759;SDS011;877;46.266;20.062;2023-04-28T01:16:05;16.55;;;12.07;;
1759;SDS011;877;46.266;20.062;2023-04-28T01:18:33;19.83;;;13.52;;
1759;SDS011;877;46.266;20.062;2023-04-28T01:21:01;23.08;;;12.50;;
1759;SDS011;877;46.266;20.062;2023-04-28T01:23:28;16.40;;;12.98;;
1759;SDS011;877;46.266;20.062;2023-04-28T01:25:55;18.45;;;12.25;;
1759;SDS011;877;46.266;20.062;2023-04-28T01:28:22;20.98;;;12.85;;
1759;SDS011;877;46.266;20.062;2023-04-28T01:30:48;18.55;;;12.95;;
1759;SDS011;877;46.266;20.062;2023-04-28T01:33:20;15.50;;;12.15;;
1759;SDS011;877;46.266;20.062;2023-04-28T01:35:48;17.27;;;12.32;;
1759;SDS011;877;46.266;20.062;2023-04-28T01:38:16;16.88;;;13.88;;
1759;SDS011;877;46.266;20.062;2023-04-28T01:40:43;20.00;;;11.63;;
1759;SDS011;877;46.266;20.062;2023-04-28T01:43:24;17.13;;;13.65;;
1759;SDS011;877;46.266;20.062;2023-04-28T01:45:52;16.20;;;12.57;;
1759;SDS011;877;46.266;20.062;2023-04-28T01:48:19;18.73;;;13.20;;
1759;SDS011;877;46.266;20.062;2023-04-28T01:50:46;14.63;;;11.40;;
1759;SDS011;877;46.266;20.062;2023-04-28T01:53:25;15.20;;;11.13;;
1759;SDS011;877;46.266;20.062;2023-04-28T01:55:53;16.65;;;12.35;;
1759;SDS011;877;46.266;20.062;2023-04-28T01:58:22;17.38;;;11.65;;
1759;SDS011;877;46.266;20.062;2023-04-28T02:00:48;17.67;;;11.77;;
1759;SDS011;877;46.266;20.062;2023-04-28T02:03:16;18.60;;;12.23;;
1759;SDS011;877;46.266;20.062;2023-04-28T02:05:42;15.90;;;11.57;;
1759;SDS011;877;46.266;20.062;2023-04-28T02:08:08;18.30;;;12.38;;
1759;SDS011;877;46.266;20.062;2023-04-28T02:10:36;16.73;;;11.23;;
1759;SDS011;877;46.266;20.062;2023-04-28T02:13:02;14.98;;;11.85;;
1759;SDS011;877;46.266;20.062;2023-04-28T02:15:28;14.82;;;10.80;;
1759;SDS011;877;46.266;20.062;2023-04-28T02:17:55;16.88;;;11.82;;
1759;SDS011;877;46.266;20.062;2023-04-28T02:20:22;16.83;;;11.57;;
1759;SDS011;877;46.266;20.062;2023-04-28T02:22:48;18.58;;;11.35;;
1759;SDS011;877;46.266;20.062;2023-04-28T02:25:15;18.80;;;12.07;;
1759;SDS011;877;46.266;20.062;2023-04-28T02:27:44;19.23;;;12.27;;
1759;SDS011;877;46.266;20.062;2023-04-28T02:30:10;16.27;;;12.50;;
1759;SDS011;877;46.266;20.062;2023-04-28T02:32:36;19.02;;;11.48;;
1759;SDS011;877;46.266;20.062;2023-04-28T02:35:02;15.55;;;12.15;;
1759;SDS011;877;46.266;20.062;2023-04-28T02:37:35;14.43;;;11.15;;
1759;SDS011;877;46.266;20.062;2023-04-28T02:40:01;16.60;;;11.68;;
1759;SDS011;877;46.266;20.062;2023-04-28T02:42:28;13.07;;;11.35;;
1759;SDS011;877;46.266;20.062;2023-04-28T02:44:58;15.20;;;11.23;;
1759;SDS011;877;46.266;20.062;2023-04-28T02:47:24;19.05;;;10.80;;
1759;SDS011;877;46.266;20.062;2023-04-28T02:49:52;12.77;;;10.00;;
1759;SDS011;877;46.266;20.062;2023-04-28T02:54:50;14.57;;;11.38;;
1759;SDS011;877;46.266;20.062;2023-04-28T02:57:19;15.50;;;11.35;;
1759;SDS011;877;46.266;20.062;2023-04-28T02:59:45;15.65;;;12.02;;
1759;SDS011;877;46.266;20.062;2023-04-28T03:02:13;15.20;;;12.00;;
1759;SDS011;877;46.266;20.062;2023-04-28T03:04:40;16.67;;;13.07;;
1759;SDS011;877;46.266;20.062;2023-04-28T03:07:06;14.93;;;12.48;;
1759;SDS011;877;46.266;20.062;2023-04-28T03:09:33;15.48;;;12.20;;
1759;SDS011;877;46.266;20.062;2023-04-28T03:12:00;15.85;;;12.63;;
1759;SDS011;877;46.266;20.062;2023-04-28T03:14:31;19.48;;;13.63;;
1759;SDS011;877;46.266;20.062;2023-04-28T03:16:57;18.10;;;13.52;;
1759;SDS011;877;46.266;20.062;2023-04-28T03:19:24;18.55;;;13.35;;
1759;SDS011;877;46.266;20.062;2023-04-28T03:21:51;18.20;;;13.93;;
1759;SDS011;877;46.266;20.062;2023-04-28T03:24:18;17.70;;;12.57;;
1759;SDS011;877;46.266;20.062;2023-04-28T03:26:44;16.08;;;12.95;;
1759;SDS011;877;46.266;20.062;2023-04-28T03:29:11;18.33;;;12.82;;
1759;SDS011;877;46.266;20.062;2023-04-28T03:31:43;15.73;;;12.15;;
1759;SDS011;877;46.266;20.062;2023-04-28T03:34:15;16.70;;;12.20;;
1759;SDS011;877;46.266;20.062;2023-04-28T03:36:43;17.50;;;13.05;;
1759;SDS011;877;46.266;20.062;2023-04-28T03:39:10;17.73;;;13.10;;
1759;SDS011;877;46.266;20.062;2023-04-28T03:41:42;17.40;;;13.10;;
1759;SDS011;877;46.266;20.062;2023-04-28T03:44:08;15.30;;;12.68;;
1759;SDS011;877;46.266;20.062;2023-04-28T03:46:34;16.83;;;12.45;;
1759;SDS011;877;46.266;20.062;2023-04-28T03:49:02;17.45;;;12.50;;
1759;SDS011;877;46.266;20.062;2023-04-28T03:51:29;14.13;;;11.93;;
1759;SDS011;877;46.266;20.062;2023-04-28T03:54:04;17.55;;;12.45;;
1759;SDS011;877;46.266;20.062;2023-04-28T03:56:31;17.15;;;12.55;;
1759;SDS011;877;46.266;20.062;2023-04-28T03:58:59;16.05;;;12.20;;
1759;SDS011;877;46.266;20.062;2023-04-28T04:01:27;17.75;;;12.30;;
1759;SDS011;877;46.266;20.062;2023-04-28T04:03:54;35.88;;;25.67;;
1759;SDS011;877;46.266;20.062;2023-04-28T04:06:21;16.30;;;12.60;;
1759;SDS011;877;46.266;20.062;2023-04-28T04:08:47;14.27;;;11.73;;
1759;SDS011;877;46.266;20.062;2023-04-28T04:11:14;19.67;;;12.00;;
1759;SDS011;877;46.266;20.062;2023-04-28T04:13:40;18.27;;;13.18;;
1759;SDS011;877;46.266;20.062;2023-04-28T04:16:13;23.88;;;15.07;;
1759;SDS011;877;46.266;20.062;2023-04-28T04:18:42;16.77;;;13.00;;
1759;SDS011;877;46.266;20.062;2023-04-28T04:21:09;14.93;;;12.77;;
1759;SDS011;877;46.266;20.062;2023-04-28T04:23:35;18.27;;;13.68;;
1759;SDS011;877;46.266;20.062;2023-04-28T04:26:04;19.95;;;14.07;;
1759;SDS011;877;46.266;20.062;2023-04-28T04:28:39;20.08;;;13.32;;
1759;SDS011;877;46.266;20.062;2023-04-28T04:31:12;21.98;;;13.95;;
1759;SDS011;877;46.266;20.062;2023-04-28T04:33:39;15.57;;;13.60;;
1759;SDS011;877;46.266;20.062;2023-04-28T04:36:06;16.95;;;14.25;;
1759;SDS011;877;46.266;20.062;2023-04-28T04:38:32;18.98;;;14.25;;
1759;SDS011;877;46.266;20.062;2023-04-28T04:41:04;18.65;;;13.95;;
1759;SDS011;877;46.266;20.062;2023-04-28T04:43:34;18.17;;;14.57;;
1759;SDS011;877;46.266;20.062;2023-04-28T04:46:04;17.58;;;13.80;;
1759;SDS011;877;46.266;20.062;2023-04-28T04:48:31;18.50;;;14.80;;
1759;SDS011;877;46.266;20.062;2023-04-28T04:50:57;22.10;;;15.52;;
1759;SDS011;877;46.266;20.062;2023-04-28T04:53:24;20.67;;;15.32;;
1759;SDS011;877;46.266;20.062;2023-04-28T04:55:54;20.02;;;14.63;;
1759;SDS011;877;46.266;20.062;2023-04-28T04:58:22;20.73;;;14.80;;
1759;SDS011;877;46.266;20.062;2023-04-28T05:00:48;22.17;;;15.52;;
1759;SDS011;877;46.266;20.062;2023-04-28T05:03:16;22.85;;;16.30;;
1759;SDS011;877;46.266;20.062;2023-04-28T05:05:43;19.95;;;14.50;;
1759;SDS011;877;46.266;20.062;2023-04-28T05:10:39;24.92;;;14.95;;
1759;SDS011;877;46.266;20.062;2023-04-28T05:13:05;18.92;;;15.80;;
1759;SDS011;877;46.266;20.062;2023-04-28T05:15:32;21.10;;;16.55;;
1759;SDS011;877;46.266;20.062;2023-04-28T05:17:58;17.90;;;15.40;;
1759;SDS011;877;46.266;20.062;2023-04-28T05:20:24;20.17;;;15.35;;
1759;SDS011;877;46.266;20.062;2023-04-28T05:25:20;21.83;;;14.25;;
1759;SDS011;877;46.266;20.062;2023-04-28T05:27:48;19.50;;;13.10;;
1759;SDS011;877;46.266;20.062;2023-04-28T05:30:15;18.70;;;12.80;;
1759;SDS011;877;46.266;20.062;2023-04-28T05:32:41;15.55;;;13.57;;
1759;SDS011;877;46.266;20.062;2023-04-28T05:35:09;20.55;;;14.05;;
1759;SDS011;877;46.266;20.062;2023-04-28T05:37:37;16.92;;;13.68;;
1759;SDS011;877;46.266;20.062;2023-04-28T05:40:03;17.10;;;13.88;;
1759;SDS011;877;46.266;20.062;2023-04-28T05:42:30;15.00;;;11.48;;
1759;SDS011;877;46.266;20.062;2023-04-28T05:44:58;14.15;;;10.90;;
1759;SDS011;877;46.266;20.062;2023-04-28T05:47:25;16.80;;;12.15;;
1759;SDS011;877;46.266;20.062;2023-04-28T05:49:52;14.00;;;11.30;;
1759;SDS011;877;46.266;20.062;2023-04-28T05:54:49;14.83;;;9.43;;
1759;SDS011;877;46.266;20.062;2023-04-28T05:57:15;10.57;;;9.30;;
1759;SDS011;877;46.266;20.062;2023-04-28T05:59:43;13.17;;;8.90;;
1759;SDS011;877;46.266;20.062;2023-04-28T06:02:09;9.80;;;8.27;;
1759;SDS011;877;46.266;20.062;2023-04-28T06:04:36;10.90;;;8.50;;
1759;SDS011;877;46.266;20.062;2023-04-28T06:07:03;13.50;;;8.30;;
1759;SDS011;877;46.266;20.062;2023-04-28T06:09:30;14.07;;;8.70;;
1759;SDS011;877;46.266;20.062;2023-04-28T06:11:57;10.90;;;8.03;;
1759;SDS011;877;46.266;20.062;2023-04-28T06:14:23;14.10;;;8.93;;
1759;SDS011;877;46.266;20.062;2023-04-28T06:16:49;11.27;;;8.40;;
1759;SDS011;877;46.266;20.062;2023-04-28T06:19:16;12.27;;;7.73;;
1759;SDS011;877;46.266;20.062;2023-04-28T06:21:46;8.90;;;6.33;;
1759;SDS011;877;46.266;20.062;2023-04-28T06:24:15;6.47;;;5.30;;
1759;SDS011;877;46.266;20.062;2023-04-28T06:26:52;12.40;;;5.80;;
1759;SDS011;877;46.266;20.062;2023-04-28T06:29:26;13.90;;;5.23;;
1759;SDS011;877;46.266;20.062;2023-04-28T06:34:25;6.73;;;4.93;;
1759;SDS011;877;46.266;20.062;2023-04-28T06:39:22;5.77;;;4.30;;
1759;SDS011;877;46.266;20.062;2023-04-28T06:41:48;6.23;;;4.20;;
1759;SDS011;877;46.266;20.062;2023-04-28T06:44:16;6.70;;;4.77;;
1759;SDS011;877;46.266;20.062;2023-04-28T06:46:42;9.00;;;4.80;;
1759;SDS011;877;46.266;20.062;2023-04-28T06:49:15;7.00;;;4.87;;
1759;SDS011;877;46.266;20.062;2023-04-28T06:51:42;7.47;;;5.67;;
1759;SDS011;877;46.266;20.062;2023-04-28T06:54:09;8.30;;;5.43;;
1759;SDS011;877;46.266;20.062;2023-04-28T06:56:36;7.73;;;5.50;;
1759;SDS011;877;46.266;20.062;2023-04-28T06:59:03;8.67;;;5.17;;
1759;SDS011;877;46.266;20.062;2023-04-28T07:04:25;9.30;;;4.40;;
1759;SDS011;877;46.266;20.062;2023-04-28T07:06:51;6.37;;;4.90;;
1759;SDS011;877;46.266;20.062;2023-04-28T07:09:18;9.57;;;4.37;;
1759;SDS011;877;46.266;20.062;2023-04-28T07:11:46;6.70;;;4.10;;
1759;SDS011;877;46.266;20.062;2023-04-28T07:14:13;6.03;;;3.97;;
1759;SDS011;877;46.266;20.062;2023-04-28T07:16:43;10.80;;;4.90;;
1759;SDS011;877;46.266;20.062;2023-04-28T07:21:46;7.33;;;5.00;;
1759;SDS011;877;46.266;20.062;2023-04-28T07:24:12;9.90;;;4.53;;
1759;SDS011;877;46.266;20.062;2023-04-28T07:29:11;5.10;;;4.03;;
1759;SDS011;877;46.266;20.062;2023-04-28T07:31:40;8.20;;;3.83;;
1759;SDS011;877;46.266;20.062;2023-04-28T07:34:06;5.53;;;4.00;;
1759;SDS011;877;46.266;20.062;2023-04-28T07:36:38;13.60;;;4.73;;
1759;SDS011;877;46.266;20.062;2023-04-28T07:39:06;5.37;;;3.70;;
1759;SDS011;877;46.266;20.062;2023-04-28T07:41:37;5.90;;;3.47;;
1759;SDS011;877;46.266;20.062;2023-04-28T07:44:04;7.43;;;4.10;;
1759;SDS011;877;46.266;20.062;2023-04-28T07:46:31;6.90;;;3.30;;
1759;SDS011;877;46.266;20.062;2023-04-28T07:48:57;7.07;;;3.00;;
1759;SDS011;877;46.266;20.062;2023-04-28T07:51:24;8.43;;;2.70;;
1759;SDS011;877;46.266;20.062;2023-04-28T07:53:52;5.90;;;3.10;;
1759;SDS011;877;46.266;20.062;2023-04-28T07:56:18;4.70;;;3.17;;
1759;SDS011;877;46.266;20.062;2023-04-28T07:58:49;3.97;;;2.83;;
1759;SDS011;877;46.266;20.062;2023-04-28T08:01:16;6.83;;;3.50;;
1759;SDS011;877;46.266;20.062;2023-04-28T08:03:43;5.40;;;3.20;;
1759;SDS011;877;46.266;20.062;2023-04-28T08:06:09;6.43;;;3.13;;
1759;SDS011;877;46.266;20.062;2023-04-28T08:08:36;7.23;;;2.90;;
1759;SDS011;877;46.266;20.062;2023-04-28T08:11:04;4.97;;;3.60;;
1759;SDS011;877;46.266;20.062;2023-04-28T08:13:30;8.77;;;3.23;;
1759;SDS011;877;46.266;20.062;2023-04-28T08:15:56;6.47;;;3.60;;
1759;SDS011;877;46.266;20.062;2023-04-28T08:18:24;6.60;;;3.57;;
1759;SDS011;877;46.266;20.062;2023-04-28T08:20:51;6.77;;;3.17;;
1759;SDS011;877;46.266;20.062;2023-04-28T08:23:19;7.23;;;3.73;;
1759;SDS011;877;46.266;20.062;2023-04-28T08:25:46;7.23;;;3.20;;
1759;SDS011;877;46.266;20.062;2023-04-28T08:28:12;5.90;;;3.30;;
1759;SDS011;877;46.266;20.062;2023-04-28T08:30:40;4.93;;;3.00;;
1759;SDS011;877;46.266;20.062;2023-04-28T08:33:07;4.53;;;2.70;;
1759;SDS011;877;46.266;20.062;2023-04-28T08:35:33;5.63;;;2.97;;
1759;SDS011;877;46.266;20.062;2023-04-28T08:38:01;4.40;;;2.67;;
1759;SDS011;877;46.266;20.062;2023-04-28T08:40:29;6.00;;;3.00;;
1759;SDS011;877;46.266;20.062;2023-04-28T08:42:55;6.07;;;3.27;;
1759;SDS011;877;46.266;20.062;2023-04-28T08:45:22;5.87;;;3.37;;
1759;SDS011;877;46.266;20.062;2023-04-28T08:47:51;6.73;;;3.00;;
1759;SDS011;877;46.266;20.062;2023-04-28T08:50:20;4.63;;;2.67;;
1759;SDS011;877;46.266;20.062;2023-04-28T08:52:47;6.13;;;3.40;;
1759;SDS011;877;46.266;20.062;2023-04-28T08:55:14;10.53;;;3.90;;
1759;SDS011;877;46.266;20.062;2023-04-28T08:57:45;6.80;;;3.00;;
1759;SDS011;877;46.266;20.062;2023-04-28T09:00:11;5.23;;;2.90;;
1759;SDS011;877;46.266;20.062;2023-04-28T09:02:37;4.03;;;2.77;;
1759;SDS011;877;46.266;20.062;2023-04-28T09:05:08;8.87;;;3.00;;
1759;SDS011;877;46.266;20.062;2023-04-28T09:07:37;6.00;;;3.37;;
1759;SDS011;877;46.266;20.062;2023-04-28T09:12:41;6.67;;;2.97;;
1759;SDS011;877;46.266;20.062;2023-04-28T09:15:07;5.40;;;2.63;;
1759;SDS011;877;46.266;20.062;2023-04-28T09:17:49;4.47;;;2.53;;
1759;SDS011;877;46.266;20.062;2023-04-28T09:20:22;5.63;;;2.40;;
1759;SDS011;877;46.266;20.062;2023-04-28T09:22:50;5.60;;;2.90;;
1759;SDS011;877;46.266;20.062;2023-04-28T09:25:16;4.33;;;2.83;;
1759;SDS011;877;46.266;20.062;2023-04-28T09:27:44;5.30;;;2.57;;
1759;SDS011;877;46.266;20.062;2023-04-28T09:30:10;4.53;;;2.30;;
1759;SDS011;877;46.266;20.062;2023-04-28T09:32:37;3.70;;;2.43;;
1759;SDS011;877;46.266;20.062;2023-04-28T09:35:03;5.47;;;2.07;;
1759;SDS011;877;46.266;20.062;2023-04-28T09:37:32;5.60;;;2.73;;
1759;SDS011;877;46.266;20.062;2023-04-28T09:40:06;5.33;;;2.53;;
1759;SDS011;877;46.266;20.062;2023-04-28T09:42:43;7.10;;;2.70;;
1759;SDS011;877;46.266;20.062;2023-04-28T09:45:13;7.27;;;3.87;;
1759;SDS011;877;46.266;20.062;2023-04-28T09:47:44;5.60;;;3.80;;
1759;SDS011;877;46.266;20.062;2023-04-28T09:50:11;4.93;;;2.70;;
1759;SDS011;877;46.266;20.062;2023-04-28T09:52:42;4.07;;;2.10;;
1759;SDS011;877;46.266;20.062;2023-04-28T09:55:10;5.57;;;2.83;;
1759;SDS011;877;46.266;20.062;2023-04-28T09:57:38;6.40;;;2.60;;
1759;SDS011;877;46.266;20.062;2023-04-28T10:00:06;4.00;;;2.23;;
1759;SDS011;877;46.266;20.062;2023-04-28T10:02:34;6.73;;;2.83;;
1759;SDS011;877;46.266;20.062;2023-04-28T10:05:01;5.63;;;2.50;;
1759;SDS011;877;46.266;20.062;2023-04-28T10:07:34;5.70;;;2.90;;
1759;SDS011;877;46.266;20.062;2023-04-28T10:10:04;5.43;;;2.53;;
1759;SDS011;877;46.266;20.062;2023-04-28T10:12:31;4.70;;;2.50;;
1759;SDS011;877;46.266;20.062;2023-04-28T10:14:58;3.63;;;2.33;;
1759;SDS011;877;46.266;20.062;2023-04-28T10:17:25;5.77;;;3.13;;
1759;SDS011;877;46.266;20.062;2023-04-28T10:19:53;4.40;;;2.60;;
1759;SDS011;877;46.266;20.062;2023-04-28T10:22:33;8.00;;;2.93;;
1759;SDS011;877;46.266;20.062;2023-04-28T10:27:39;4.53;;;2.63;;
1759;SDS011;877;46.266;20.062;2023-04-28T10:30:11;8.27;;;2.97;;
1759;SDS011;877;46.266;20.062;2023-04-28T10:32:37;6.07;;;2.57;;
1759;SDS011;877;46.266;20.062;2023-04-28T10:38:02;4.60;;;2.90;;
1759;SDS011;877;46.266;20.062;2023-04-28T10:40:38;5.50;;;2.50;;
1759;SDS011;877;46.266;20.062;2023-04-28T10:43:09;4.73;;;2.50;;
1759;SDS011;877;46.266;20.062;2023-04-28T10:48:14;5.30;;;3.60;;
1759;SDS011;877;46.266;20.062;2023-04-28T10:56:10;6.10;;;3.50;;
1759;SDS011;877;46.266;20.062;2023-04-28T10:58:38;4.30;;;2.60;;
1759;SDS011;877;46.266;20.062;2023-04-28T11:06:20;5.30;;;3.10;;
1759;SDS011;877;46.266;20.062;2023-04-28T11:08:51;4.43;;;2.90;;
1759;SDS011;877;46.266;20.062;2023-04-28T11:11:29;6.50;;;3.00;;
1759;SDS011;877;46.266;20.062;2023-04-28T11:16:51;5.43;;;2.60;;
1759;SDS011;877;46.266;20.062;2023-04-28T11:19:25;5.87;;;2.70;;
1759;SDS011;877;46.266;20.062;2023-04-28T11:21:53;6.60;;;3.23;;
1759;SDS011;877;46.266;20.062;2023-04-28T11:24:20;4.27;;;2.70;;
1759;SDS011;877;46.266;20.062;2023-04-28T11:26:47;4.60;;;2.73;;
1759;SDS011;877;46.266;20.062;2023-04-28T11:29:13;4.70;;;3.00;;
1759;SDS011;877;46.266;20.062;2023-04-28T11:31:39;5.50;;;2.57;;
1759;SDS011;877;46.266;20.062;2023-04-28T11:34:17;8.30;;;3.07;;
1759;SDS011;877;46.266;20.062;2023-04-28T11:36:44;5.00;;;3.33;;
1759;SDS011;877;46.266;20.062;2023-04-28T11:39:12;6.70;;;3.27;;
1759;SDS011;877;46.266;20.062;2023-04-28T11:41:44;5.83;;;3.60;;
1759;SDS011;877;46.266;20.062;2023-04-28T11:44:18;5.03;;;2.60;;
1759;SDS011;877;46.266;20.062;2023-04-28T11:46:52;5.97;;;3.10;;
1759;SDS011;877;46.266;20.062;2023-04-28T11:49:28;4.70;;;3.10;;
1759;SDS011;877;46.266;20.062;2023-04-28T11:51:55;9.50;;;3.23;;
1759;SDS011;877;46.266;20.062;2023-04-28T11:54:25;4.30;;;2.70;;
1759;SDS011;877;46.266;20.062;2023-04-28T11:56:51;5.53;;;2.67;;
1759;SDS011;877;46.266;20.062;2023-04-28T12:04:34;6.33;;;3.50;;
1759;SDS011;877;46.266;20.062;2023-04-28T12:07:14;5.00;;;2.80;;
1759;SDS011;877;46.266;20.062;2023-04-28T12:09:45;6.33;;;3.23;;
1759;SDS011;877;46.266;20.062;2023-04-28T12:12:28;6.63;;;3.27;;
1759;SDS011;877;46.266;20.062;2023-04-28T12:14:55;6.17;;;3.20;;
1759;SDS011;877;46.266;20.062;2023-04-28T12:17:33;8.10;;;3.60;;
1759;SDS011;877;46.266;20.062;2023-04-28T12:20:02;7.07;;;2.80;;
1759;SDS011;877;46.266;20.062;2023-04-28T12:22:28;3.90;;;2.60;;
1759;SDS011;877;46.266;20.062;2023-04-28T12:25:09;6.77;;;2.70;;
1759;SDS011;877;46.266;20.062;2023-04-28T12:27:35;4.87;;;2.70;;
1759;SDS011;877;46.266;20.062;2023-04-28T12:32:39;4.73;;;2.80;;
1759;SDS011;877;46.266;20.062;2023-04-28T12:35:06;5.77;;;3.37;;
1759;SDS011;877;46.266;20.062;2023-04-28T12:37:34;6.30;;;2.70;;
1759;SDS011;877;46.266;20.062;2023-04-28T12:40:01;5.40;;;2.57;;
1759;SDS011;877;46.266;20.062;2023-04-28T12:42:28;4.10;;;2.67;;
1759;SDS011;877;46.266;20.062;2023-04-28T12:44:56;6.50;;;3.07;;
1759;SDS011;877;46.266;20.062;2023-04-28T12:47:24;10.23;;;3.43;;
1759;SDS011;877;46.266;20.062;2023-04-28T12:49:50;5.90;;;3.00;;
1759;SDS011;877;46.266;20.062;2023-04-28T12:54:46;5.83;;;4.10;;
1759;SDS011;877;46.266;20.062;2023-04-28T12:57:14;4.00;;;2.90;;
1759;SDS011;877;46.266;20.062;2023-04-28T12:59:41;6.73;;;3.00;;
1759;SDS011;877;46.266;20.062;2023-04-28T13:02:09;8.03;;;3.47;;
1759;SDS011;877;46.266;20.062;2023-04-28T13:04:35;4.30;;;2.67;;
1759;SDS011;877;46.266;20.062;2023-04-28T13:07:01;4.73;;;2.80;;
1759;SDS011;877;46.266;20.062;2023-04-28T13:09:28;6.47;;;3.17;;
1759;SDS011;877;46.266;20.062;2023-04-28T13:11:54;4.10;;;2.63;;
1759;SDS011;877;46.266;20.062;2023-04-28T13:14:21;7.10;;;3.23;;
1759;SDS011;877;46.266;20.062;2023-04-28T13:16:57;6.00;;;2.90;;
1759;SDS011;877;46.266;20.062;2023-04-28T13:19:24;8.43;;;3.17;;
1759;SDS011;877;46.266;20.062;2023-04-28T13:21:57;7.17;;;3.20;;
1759;SDS011;877;46.266;20.062;2023-04-28T13:24:24;9.07;;;3.60;;
1759;SDS011;877;46.266;20.062;2023-04-28T13:29:34;5.83;;;2.87;;
1759;SDS011;877;46.266;20.062;2023-04-28T13:32:07;6.70;;;2.93;;
1759;SDS011;877;46.266;20.062;2023-04-28T13:34:33;4.50;;;3.20;;
1759;SDS011;877;46.266;20.062;2023-04-28T13:37:01;8.60;;;3.10;;
1759;SDS011;877;46.266;20.062;2023-04-28T13:39:27;6.57;;;2.67;;
1759;SDS011;877;46.266;20.062;2023-04-28T13:41:53;5.40;;;2.70;;
1759;SDS011;877;46.266;20.062;2023-04-28T13:44:24;6.73;;;3.20;;
1759;SDS011;877;46.266;20.062;2023-04-28T13:46:51;5.30;;;2.73;;
1759;SDS011;877;46.266;20.062;2023-04-28T13:49:17;5.50;;;3.30;;
1759;SDS011;877;46.266;20.062;2023-04-28T13:51:46;5.20;;;3.13;;
1759;SDS011;877;46.266;20.062;2023-04-28T13:54:14;6.50;;;2.80;;
1759;SDS011;877;46.266;20.062;2023-04-28T13:56:40;5.67;;;3.20;;
1759;SDS011;877;46.266;20.062;2023-04-28T13:59:07;5.20;;;2.80;;
1759;SDS011;877;46.266;20.062;2023-04-28T14:01:33;4.90;;;2.50;;
1759;SDS011;877;46.266;20.062;2023-04-28T14:04:01;5.20;;;2.80;;
1759;SDS011;877;46.266;20.062;2023-04-28T14:06:28;4.63;;;3.10;;
1759;SDS011;877;46.266;20.062;2023-04-28T14:08:55;7.20;;;3.17;;
1759;SDS011;877;46.266;20.062;2023-04-28T14:11:28;6.63;;;3.30;;
1759;SDS011;877;46.266;20.062;2023-04-28T14:13:54;6.80;;;2.73;;
1759;SDS011;877;46.266;20.062;2023-04-28T14:16:28;6.13;;;3.40;;
1759;SDS011;877;46.266;20.062;2023-04-28T14:18:54;6.10;;;3.20;;
1759;SDS011;877;46.266;20.062;2023-04-28T14:21:26;4.50;;;2.73;;
1759;SDS011;877;46.266;20.062;2023-04-28T14:26:42;5.90;;;3.33;;
1759;SDS011;877;46.266;20.062;2023-04-28T14:29:13;6.60;;;3.40;;
1759;SDS011;877;46.266;20.062;2023-04-28T14:31:40;6.60;;;2.73;;
1759;SDS011;877;46.266;20.062;2023-04-28T14:34:07;7.27;;;3.27;;
1759;SDS011;877;46.266;20.062;2023-04-28T14:36:37;5.03;;;2.50;;
1759;SDS011;877;46.266;20.062;2023-04-28T14:39:13;10.67;;;3.73;;
1759;SDS011;877;46.266;20.062;2023-04-28T14:41:40;6.23;;;3.33;;
1759;SDS011;877;46.266;20.062;2023-04-28T14:47:00;6.53;;;3.10;;
1759;SDS011;877;46.266;20.062;2023-04-28T14:49:30;5.37;;;3.33;;
1759;SDS011;877;46.266;20.062;2023-04-28T14:51:58;5.63;;;3.00;;
1759;SDS011;877;46.266;20.062;2023-04-28T14:54:25;5.93;;;2.97;;
1759;SDS011;877;46.266;20.062;2023-04-28T14:57:10;4.97;;;2.83;;
1759;SDS011;877;46.266;20.062;2023-04-28T14:59:37;6.40;;;3.83;;
1759;SDS011;877;46.266;20.062;2023-04-28T15:02:04;5.53;;;3.20;;
1759;SDS011;877;46.266;20.062;2023-04-28T15:04:31;4.60;;;2.70;;
1759;SDS011;877;46.266;20.062;2023-04-28T15:07:08;10.70;;;3.33;;
1759;SDS011;877;46.266;20.062;2023-04-28T15:09:34;6.90;;;3.00;;
1759;SDS011;877;46.266;20.062;2023-04-28T15:12:06;7.00;;;3.30;;
1759;SDS011;877;46.266;20.062;2023-04-28T15:14:32;5.40;;;3.30;;
1759;SDS011;877;46.266;20.062;2023-04-28T15:16:59;5.50;;;3.20;;
1759;SDS011;877;46.266;20.062;2023-04-28T15:19:26;6.03;;;3.40;;
1759;SDS011;877;46.266;20.062;2023-04-28T15:21:54;5.70;;;3.10;;
1759;SDS011;877;46.266;20.062;2023-04-28T15:27:00;5.10;;;3.17;;
1759;SDS011;877;46.266;20.062;2023-04-28T15:32:20;4.97;;;2.50;;
1759;SDS011;877;46.266;20.062;2023-04-28T15:34:47;7.30;;;3.07;;
1759;SDS011;877;46.266;20.062;2023-04-28T15:39:55;4.13;;;2.60;;
1759;SDS011;877;46.266;20.062;2023-04-28T15:42:24;5.10;;;2.70;;
1759;SDS011;877;46.266;20.062;2023-04-28T15:44:56;7.90;;;3.40;;
1759;SDS011;877;46.266;20.062;2023-04-28T15:47:24;6.27;;;2.80;;
1759;SDS011;877;46.266;20.062;2023-04-28T15:49:50;7.40;;;3.53;;
1759;SDS011;877;46.266;20.062;2023-04-28T15:52:22;5.63;;;3.13;;
1759;SDS011;877;46.266;20.062;2023-04-28T15:54:49;9.20;;;3.83;;
1759;SDS011;877;46.266;20.062;2023-04-28T15:57:15;8.30;;;3.23;;
1759;SDS011;877;46.266;20.062;2023-04-28T15:59:42;7.53;;;3.77;;
1759;SDS011;877;46.266;20.062;2023-04-28T16:04:41;5.47;;;3.37;;
1759;SDS011;877;46.266;20.062;2023-04-28T16:07:07;5.80;;;3.60;;
1759;SDS011;877;46.266;20.062;2023-04-28T16:09:33;5.60;;;3.00;;
1759;SDS011;877;46.266;20.062;2023-04-28T16:12:05;7.00;;;3.10;;
1759;SDS011;877;46.266;20.062;2023-04-28T16:17:17;6.17;;;2.80;;
1759;SDS011;877;46.266;20.062;2023-04-28T16:19:44;8.07;;;3.20;;
1759;SDS011;877;46.266;20.062;2023-04-28T16:22:22;5.27;;;3.33;;
1759;SDS011;877;46.266;20.062;2023-04-28T16:24:49;5.93;;;3.17;;
1759;SDS011;877;46.266;20.062;2023-04-28T16:27:16;5.53;;;3.13;;
1759;SDS011;877;46.266;20.062;2023-04-28T16:29:44;9.93;;;3.30;;
1759;SDS011;877;46.266;20.062;2023-04-28T16:32:11;5.33;;;3.20;;
1759;SDS011;877;46.266;20.062;2023-04-28T16:37:14;8.87;;;3.10;;
1759;SDS011;877;46.266;20.062;2023-04-28T16:42:13;6.00;;;3.03;;